createdAt,value
2023-05-13T00:01:24.448Z,15.16
2023-05-13T00:03:53.753Z,15.08
2023-05-13T00:06:24.209Z,15.03
2023-05-13T00:08:53.384Z,14.92
2023-05-13T00:11:22.184Z,14.89
2023-05-13T00:13:51.098Z,14.87
2023-05-13T00:16:20.545Z,14.83
2023-05-13T00:18:49.908Z,14.88
2023-05-13T00:21:19.034Z,14.19
2023-05-13T00:23:49.713Z,14.86
2023-05-13T00:26:18.873Z,14.72
2023-05-13T00:28:50.812Z,14.85
2023-05-13T00:31:19.892Z,14.80
2023-05-13T00:33:49.156Z,14.78
2023-05-13T00:36:18.608Z,14.75
2023-05-13T00:38:49.187Z,14.57
2023-05-13T00:41:19.800Z,14.86
2023-05-13T00:43:48.874Z,14.54
2023-05-13T00:46:18.430Z,14.57
2023-05-13T00:48:47.671Z,14.48
2023-05-13T00:51:16.925Z,14.45
2023-05-13T00:53:47.533Z,14.40
2023-05-13T00:56:22.077Z,14.40
2023-05-13T00:58:51.392Z,14.33
2023-05-13T01:01:30.109Z,14.34
2023-05-13T01:04:09.849Z,14.30
2023-05-13T01:06:47.110Z,14.29
2023-05-13T01:09:23.260Z,14.24
2023-05-13T01:11:57.012Z,14.21
2023-05-13T01:14:30.640Z,14.15
2023-05-13T01:17:06.304Z,14.15
2023-05-13T01:19:43.193Z,14.15
2023-05-13T01:22:14.344Z,14.22
2023-05-13T01:24:45.774Z,14.14
2023-05-13T01:27:15.460Z,14.10
2023-05-13T01:29:45.571Z,14.04
2023-05-13T01:32:17.903Z,13.95
2023-05-13T01:34:48.122Z,13.88
2023-05-13T01:37:18.841Z,13.78
2023-05-13T01:39:49.074Z,13.88
2023-05-13T01:42:18.562Z,13.74
2023-05-13T01:44:47.894Z,13.77
2023-05-13T01:47:17.130Z,13.65
2023-05-13T01:49:48.531Z,13.72
2023-05-13T01:52:19.028Z,13.35
2023-05-13T01:54:48.047Z,13.45
2023-05-13T01:57:19.671Z,13.58
2023-05-13T01:59:49.028Z,13.61
2023-05-13T02:07:31.394Z,13.54
2023-05-13T02:10:00.759Z,13.47
2023-05-13T02:12:30.177Z,13.42
2023-05-13T02:14:59.557Z,13.42
2023-05-13T02:17:28.786Z,13.39
2023-05-13T02:19:57.778Z,13.39
2023-05-13T02:22:28.922Z,13.15
2023-05-13T02:24:59.455Z,13.08
2023-05-13T02:27:28.310Z,13.23
2023-05-13T02:29:57.757Z,13.23
2023-05-13T02:32:26.870Z,13.13
2023-05-13T02:34:56.012Z,12.94
2023-05-13T02:37:27.875Z,13.07
2023-05-13T02:40:08.171Z,13.04
2023-05-13T02:42:37.391Z,13.09
2023-05-13T02:45:07.622Z,13.11
2023-05-13T02:47:40.122Z,13.03
2023-05-13T02:50:10.707Z,13.07
2023-05-13T02:52:40.600Z,12.96
2023-05-13T02:55:12.003Z,12.96
2023-05-13T02:57:41.149Z,12.93
2023-05-13T03:00:11.185Z,12.91
2023-05-13T03:02:40.533Z,12.76
2023-05-13T03:05:10.451Z,12.78
2023-05-13T03:07:39.500Z,12.68
2023-05-13T03:10:12.559Z,12.69
2023-05-13T03:12:43.427Z,12.02
2023-05-13T03:15:15.999Z,12.38
2023-05-13T03:17:46.086Z,12.29
2023-05-13T03:20:15.195Z,12.36
2023-05-13T03:22:44.355Z,12.20
2023-05-13T03:25:15.337Z,12.50
2023-05-13T03:27:52.494Z,12.50
2023-05-13T03:30:23.945Z,12.42
2023-05-13T03:33:04.300Z,12.45
2023-05-13T03:35:33.602Z,12.50
2023-05-13T03:38:03.016Z,12.41
2023-05-13T03:40:34.067Z,12.42
2023-05-13T03:43:03.420Z,12.42
2023-05-13T03:45:33.387Z,12.35
2023-05-13T03:48:08.098Z,12.38
2023-05-13T03:50:37.312Z,12.29
2023-05-13T03:53:07.176Z,12.29
2023-05-13T03:55:40.167Z,12.18
2023-05-13T03:58:13.371Z,12.20
2023-05-13T04:00:42.745Z,12.03
2023-05-13T04:03:14.282Z,12.14
2023-05-13T04:05:44.256Z,12.16
2023-05-13T04:08:16.995Z,12.06
2023-05-13T04:10:47.251Z,10.50
2023-05-13T04:13:16.650Z,11.78
2023-05-13T04:15:47.733Z,11.81
2023-05-13T04:18:16.740Z,11.20
2023-05-13T04:20:46.240Z,12.00
2023-05-13T04:23:19.453Z,12.01
2023-05-13T04:25:53.705Z,11.91
2023-05-13T04:28:23.184Z,11.90
2023-05-13T04:30:54.466Z,11.36
2023-05-13T04:33:23.905Z,11.90
2023-05-13T04:35:52.990Z,11.83
2023-05-13T04:38:21.982Z,11.99
2023-05-13T04:40:53.627Z,12.03
2023-05-13T04:43:30.719Z,12.02
2023-05-13T04:46:01.330Z,12.03
2023-05-13T04:48:30.565Z,12.05
2023-05-13T04:51:00.665Z,11.95
2023-05-13T04:53:31.370Z,12.02
2023-05-13T04:56:05.558Z,12.09
2023-05-13T04:58:34.686Z,12.07
2023-05-13T05:01:06.584Z,12.18
2023-05-13T05:03:35.744Z,12.33
2023-05-13T05:06:05.163Z,12.51
2023-05-13T05:08:34.222Z,12.52
2023-05-13T05:11:04.354Z,12.69
2023-05-13T05:13:35.299Z,12.87
2023-05-13T05:16:09.642Z,13.08
2023-05-13T05:18:41.299Z,13.27
2023-05-13T05:21:10.368Z,13.40
2023-05-13T05:23:42.426Z,13.61
2023-05-13T05:26:12.848Z,13.61
2023-05-13T05:28:44.492Z,13.01
2023-05-13T05:31:14.690Z,13.62
2023-05-13T05:33:43.535Z,13.83
2023-05-13T05:36:14.577Z,14.00
2023-05-13T05:38:43.266Z,14.01
2023-05-13T05:41:14.540Z,14.10
2023-05-13T05:43:43.377Z,14.15
2023-05-13T05:46:12.166Z,14.17
2023-05-13T05:48:41.016Z,14.43
2023-05-13T05:51:10.395Z,14.42
2023-05-13T05:53:41.113Z,14.26
2023-05-13T05:56:14.665Z,14.13
2023-05-13T05:58:44.221Z,14.40
2023-05-13T06:01:15.733Z,14.74
2023-05-13T06:03:45.984Z,14.81
2023-05-13T06:06:14.912Z,15.00
2023-05-13T06:08:43.649Z,14.88
2023-05-13T06:11:13.752Z,14.97
2023-05-13T06:13:45.157Z,15.00
2023-05-13T06:16:13.950Z,14.81
2023-05-13T06:18:43.251Z,15.01
2023-05-13T06:21:12.064Z,15.15
2023-05-13T06:23:42.272Z,15.39
2023-05-13T06:26:11.058Z,15.50
2023-05-13T06:28:41.172Z,15.58
2023-05-13T06:31:09.998Z,15.66
2023-05-13T06:33:39.245Z,15.74
2023-05-13T06:36:09.423Z,15.85
2023-05-13T06:38:40.689Z,15.93
2023-05-13T06:41:09.768Z,16.12
2023-05-13T06:43:41.450Z,16.34
2023-05-13T06:46:36.598Z,16.54
2023-05-13T06:49:05.418Z,16.41
2023-05-13T06:51:36.651Z,16.53
2023-05-13T06:54:05.534Z,16.46
2023-05-13T06:56:35.477Z,16.56
2023-05-13T06:59:08.510Z,16.89
2023-05-13T07:01:37.384Z,17.12
2023-05-13T07:04:09.008Z,17.26
2023-05-13T07:06:40.351Z,17.37
2023-05-13T07:09:09.837Z,17.25
2023-05-13T07:11:39.122Z,17.39
2023-05-13T07:14:09.595Z,16.69
2023-05-13T07:16:38.514Z,17.94
2023-05-13T07:19:12.334Z,17.88
2023-05-13T07:21:41.380Z,17.86
2023-05-13T07:24:10.220Z,17.75
2023-05-13T07:26:39.835Z,17.97
2023-05-13T07:29:10.070Z,18.23
2023-05-13T07:31:41.352Z,18.40
2023-05-13T07:34:10.185Z,18.46
2023-05-13T07:36:39.078Z,18.58
2023-05-13T07:39:08.788Z,18.53
2023-05-13T07:41:38.097Z,18.82
2023-05-13T07:44:11.745Z,18.85
2023-05-13T07:46:44.533Z,18.96
2023-05-13T07:49:13.523Z,19.05
2023-05-13T07:51:42.479Z,19.04
2023-05-13T07:54:11.590Z,18.48
2023-05-13T07:56:40.473Z,19.20
2023-05-13T07:59:09.464Z,19.46
2023-05-13T08:01:38.583Z,19.57
2023-05-13T08:04:08.958Z,19.71
2023-05-13T08:06:38.074Z,20.04
2023-05-13T08:09:09.501Z,20.23
2023-05-13T08:11:38.168Z,20.16
2023-05-13T08:14:07.340Z,19.77
2023-05-13T08:16:37.052Z,19.73
2023-05-13T08:19:06.055Z,19.69
2023-05-13T08:21:36.174Z,19.71
2023-05-13T08:24:07.893Z,19.88
2023-05-13T08:26:36.842Z,20.01
2023-05-13T08:29:05.948Z,19.81
2023-05-13T08:31:34.804Z,19.96
2023-05-13T08:34:03.870Z,20.31
2023-05-13T08:36:32.744Z,20.44
2023-05-13T08:39:03.084Z,20.46
2023-05-13T08:41:32.304Z,20.61
2023-05-13T08:44:01.849Z,20.82
2023-05-13T08:46:33.757Z,21.04
2023-05-13T08:49:02.833Z,19.96
2023-05-13T08:51:32.221Z,20.96
2023-05-13T08:54:02.634Z,21.01
2023-05-13T08:56:31.484Z,21.01
2023-05-13T08:59:00.382Z,21.06
2023-05-13T09:01:31.172Z,20.82
2023-05-13T09:04:06.443Z,21.04
2023-05-13T09:06:37.784Z,20.36
2023-05-13T09:09:09.754Z,21.19
2023-05-13T09:11:41.037Z,21.25
2023-05-13T09:14:12.839Z,21.08
2023-05-13T09:16:43.569Z,20.94
2023-05-13T09:19:13.785Z,21.01
2023-05-13T09:21:45.368Z,20.81
2023-05-13T09:24:18.927Z,20.69
2023-05-13T09:26:48.522Z,20.58
2023-05-13T09:29:23.240Z,20.49
2023-05-13T09:31:53.919Z,20.53
2023-05-13T09:34:30.842Z,20.68
2023-05-13T09:37:01.619Z,21.05
2023-05-13T09:39:33.991Z,21.22
2023-05-13T09:42:05.344Z,21.25
2023-05-13T09:44:37.029Z,21.08
2023-05-13T09:47:06.136Z,20.77
2023-05-13T09:49:37.504Z,21.06
2023-05-13T09:52:10.168Z,21.43
2023-05-13T09:54:40.457Z,21.53
2023-05-13T09:57:14.055Z,21.66
2023-05-13T09:59:42.865Z,21.76
2023-05-13T10:02:16.629Z,21.89
2023-05-13T10:04:45.865Z,21.60
2023-05-13T10:07:15.450Z,22.27
2023-05-13T10:09:47.201Z,22.38
2023-05-13T10:12:16.630Z,22.47
2023-05-13T10:14:45.549Z,22.60
2023-05-13T10:17:15.581Z,22.69
2023-05-13T10:19:44.938Z,22.76
2023-05-13T10:22:15.444Z,22.77
2023-05-13T10:24:45.930Z,22.74
2023-05-13T10:27:15.321Z,22.58
2023-05-13T10:29:45.607Z,22.82
2023-05-13T10:32:17.116Z,22.94
2023-05-13T10:34:47.730Z,23.14
2023-05-13T10:37:40.881Z,23.28
2023-05-13T10:40:34.159Z,23.49
2023-05-13T10:43:14.066Z,23.33
2023-05-13T10:45:47.318Z,23.45
2023-05-13T10:48:17.943Z,23.39
2023-05-13T10:50:55.396Z,23.51
2023-05-13T10:53:29.411Z,23.37
2023-05-13T10:56:01.254Z,23.48
2023-05-13T10:58:32.012Z,23.64
2023-05-13T11:01:17.695Z,23.49
2023-05-13T11:03:54.774Z,23.87
2023-05-13T11:06:31.196Z,23.85
2023-05-13T11:09:00.233Z,24.06
2023-05-13T11:11:34.203Z,24.00
2023-05-13T11:14:15.729Z,23.89
2023-05-13T11:17:41.847Z,23.91
2023-05-13T11:20:12.027Z,23.85
2023-05-13T11:25:14.244Z,23.62
2023-05-13T11:27:44.524Z,23.84
2023-05-13T11:30:24.502Z,23.50
2023-05-13T11:32:56.166Z,23.51
2023-05-13T11:35:28.771Z,23.69
2023-05-13T11:37:59.969Z,23.89
2023-05-13T11:40:32.906Z,23.78
2023-05-13T11:43:05.183Z,23.83
2023-05-13T11:45:34.567Z,23.68
2023-05-13T11:48:22.210Z,23.38
2023-05-13T11:50:52.040Z,23.55
2023-05-13T11:53:22.414Z,23.88
2023-05-13T11:55:51.807Z,24.04
2023-05-13T11:58:22.307Z,24.02
2023-05-13T12:00:51.987Z,23.98
2023-05-13T12:03:20.833Z,23.96
2023-05-13T12:05:51.373Z,23.88
2023-05-13T12:08:21.276Z,23.67
2023-05-13T12:10:53.569Z,23.68
2023-05-13T12:13:23.960Z,23.49
2023-05-13T12:15:53.552Z,23.62
2023-05-13T12:18:22.349Z,23.45
2023-05-13T12:20:51.710Z,23.51
2023-05-13T12:23:22.813Z,23.70
2023-05-13T12:25:51.948Z,23.64
2023-05-13T12:28:23.687Z,23.45
2023-05-13T12:30:54.805Z,23.67
2023-05-13T12:33:24.832Z,23.39
2023-05-13T12:35:55.353Z,23.87
2023-05-13T12:38:25.616Z,23.95
2023-05-13T12:40:55.117Z,24.16
2023-05-13T12:43:25.307Z,24.15
2023-05-13T12:45:55.736Z,24.26
2023-05-13T12:48:27.085Z,24.28
2023-05-13T12:51:00.113Z,24.35
2023-05-13T12:53:31.082Z,24.01
2023-05-13T12:56:00.127Z,23.78
2023-05-13T12:58:30.217Z,23.87
2023-05-13T13:01:01.294Z,23.91
2023-05-13T13:03:30.357Z,23.63
2023-05-13T13:05:59.191Z,23.74
2023-05-13T13:08:30.414Z,23.54
2023-05-13T13:11:00.716Z,23.86
2023-05-13T13:13:30.922Z,23.86
2023-05-13T13:15:59.982Z,23.79
2023-05-13T13:18:28.883Z,23.45
2023-05-13T13:20:57.683Z,23.59
2023-05-13T13:23:26.616Z,23.55
2023-05-13T13:25:55.426Z,23.57
2023-05-13T13:28:24.088Z,23.59
2023-05-13T13:30:54.218Z,23.63
2023-05-13T13:33:23.089Z,23.77
2023-05-13T13:35:51.906Z,23.83
2023-05-13T13:38:20.646Z,23.48
2023-05-13T13:40:52.406Z,23.54
2023-05-13T13:43:23.504Z,23.43
2023-05-13T13:45:52.384Z,23.62
2023-05-13T13:48:25.290Z,23.62
2023-05-13T13:50:59.667Z,23.61
2023-05-13T13:53:28.570Z,23.64
2023-05-13T13:55:57.461Z,23.59
2023-05-13T13:58:26.440Z,23.42
2023-05-13T14:00:57.523Z,23.40
2023-05-13T14:03:28.317Z,23.35
2023-05-13T14:05:57.237Z,23.43
2023-05-13T14:08:26.168Z,23.29
2023-05-13T14:10:54.993Z,23.43
2023-05-13T14:13:23.714Z,23.18
2023-05-13T14:15:52.408Z,23.35
2023-05-13T14:18:21.154Z,23.05
2023-05-13T14:20:51.425Z,23.35
2023-05-13T14:23:20.174Z,23.36
2023-05-13T14:25:49.075Z,23.26
2023-05-13T14:28:18.459Z,23.23
2023-05-13T14:30:47.246Z,23.30
2023-05-13T14:33:16.014Z,23.31
2023-05-13T14:35:44.796Z,23.32
2023-05-13T14:38:14.878Z,23.42
2023-05-13T14:40:43.706Z,23.13
2023-05-13T14:43:12.549Z,23.21
2023-05-13T14:46:12.672Z,23.13
2023-05-13T14:48:41.491Z,23.15
2023-05-13T14:51:12.375Z,22.83
2023-05-13T14:53:44.841Z,22.96
2023-05-13T14:56:13.699Z,22.87
2023-05-13T14:58:44.664Z,22.77
2023-05-13T15:01:13.467Z,22.84
2023-05-13T15:03:42.185Z,22.82
2023-05-13T15:06:11.142Z,22.84
2023-05-13T15:08:40.129Z,22.23
2023-05-13T15:11:10.393Z,22.01
2023-05-13T15:13:39.407Z,22.60
2023-05-13T15:16:08.645Z,22.53
2023-05-13T15:18:39.915Z,22.56
2023-05-13T15:21:08.612Z,22.57
2023-05-13T15:23:37.738Z,22.70
2023-05-13T15:26:06.478Z,22.77
2023-05-13T15:28:36.654Z,22.72
2023-05-13T15:31:05.724Z,22.61
2023-05-13T15:33:34.501Z,22.74
2023-05-13T15:36:03.394Z,22.74
2023-05-13T15:38:32.502Z,22.61
2023-05-13T15:41:03.497Z,22.63
2023-05-13T15:43:34.187Z,22.66
2023-05-13T15:46:04.664Z,22.55
2023-05-13T15:48:33.864Z,22.37
2023-05-13T15:51:03.783Z,22.22
2023-05-13T15:53:32.618Z,22.20
2023-05-13T15:56:01.373Z,22.21
2023-05-13T15:58:30.156Z,22.13
2023-05-13T16:00:59.583Z,21.74
2023-05-13T16:03:29.751Z,21.96
2023-05-13T16:05:58.509Z,21.43
2023-05-13T16:08:27.287Z,22.00
2023-05-13T16:10:56.023Z,21.71
2023-05-13T16:13:25.027Z,21.92
2023-05-13T16:15:54.190Z,21.90
2023-05-13T16:18:25.153Z,21.39
2023-05-13T16:20:55.488Z,21.65
2023-05-13T16:23:24.460Z,21.02
2023-05-13T16:25:53.220Z,21.58
2023-05-13T16:28:21.887Z,21.62
2023-05-13T16:30:51.382Z,21.61
2023-05-13T16:33:20.258Z,21.36
2023-05-13T16:35:51.319Z,20.94
2023-05-13T16:38:21.344Z,21.48
2023-05-13T16:40:50.431Z,21.54
2023-05-13T16:43:22.323Z,21.48
2023-05-13T16:45:51.765Z,21.46
2023-05-13T16:48:21.413Z,21.37
2023-05-13T16:50:51.358Z,21.26
2023-05-13T16:53:23.336Z,21.14
2023-05-13T16:55:52.496Z,21.10
2023-05-13T16:58:24.308Z,21.10
2023-05-13T17:00:53.469Z,21.02
2023-05-13T17:03:22.518Z,20.90
2023-05-13T17:05:51.401Z,20.90
2023-05-13T17:08:21.401Z,20.88
2023-05-13T17:10:51.532Z,20.92
2023-05-13T17:13:22.851Z,20.83
2023-05-13T17:15:53.859Z,20.84
2023-05-13T17:18:22.667Z,20.64
2023-05-13T17:20:51.461Z,19.85
2023-05-13T17:23:22.431Z,20.52
2023-05-13T17:25:52.645Z,20.30
2023-05-13T17:28:21.434Z,19.84
2023-05-13T17:30:52.550Z,20.23
2023-05-13T17:33:21.787Z,20.21
2023-05-13T17:35:50.792Z,20.26
2023-05-13T17:38:19.513Z,20.22
2023-05-13T17:40:48.433Z,20.24
2023-05-13T17:43:19.055Z,20.18
2023-05-13T17:45:48.025Z,20.01
2023-05-13T17:48:16.920Z,19.97
2023-05-13T17:50:48.112Z,19.99
2023-05-13T17:53:16.841Z,19.96
2023-05-13T17:55:48.931Z,19.78
2023-05-13T17:58:19.060Z,19.81
2023-05-13T18:00:48.294Z,19.72
2023-05-13T18:03:17.480Z,19.70
2023-05-13T18:05:46.306Z,19.76
2023-05-13T18:08:15.120Z,19.68
2023-05-13T18:10:44.042Z,19.58
2023-05-13T18:13:12.858Z,19.41
2023-05-13T18:15:43.241Z,19.49
2023-05-13T18:18:12.102Z,19.39
2023-05-13T18:20:42.126Z,19.33
2023-05-13T18:23:10.908Z,19.24
2023-05-13T18:25:48.815Z,19.24
2023-05-13T18:28:24.265Z,19.17
2023-05-13T18:30:54.495Z,19.04
2023-05-13T18:33:23.280Z,19.03
2023-05-13T18:35:53.249Z,18.98
2023-05-13T18:38:22.008Z,18.99
2023-05-13T18:40:50.850Z,18.99
2023-05-13T18:43:19.563Z,18.77
2023-05-13T18:45:48.361Z,18.66
2023-05-13T18:48:18.591Z,18.45
2023-05-13T18:50:47.382Z,18.51
2023-05-13T18:53:16.123Z,18.40
2023-05-13T18:55:44.863Z,18.21
2023-05-13T18:58:13.568Z,18.39
2023-05-13T19:00:42.539Z,18.12
2023-05-13T19:03:11.459Z,18.07
2023-05-13T19:05:41.753Z,18.05
2023-05-13T19:08:10.512Z,18.06
2023-05-13T19:10:40.435Z,17.84
2023-05-13T19:13:09.497Z,17.89
2023-05-13T19:15:38.402Z,17.84
2023-05-13T19:18:07.317Z,17.69
2023-05-13T19:20:36.230Z,17.53
2023-05-13T19:23:06.419Z,17.74
2023-05-13T19:25:42.112Z,17.36
2023-05-13T19:28:13.360Z,17.27
2023-05-13T19:30:42.880Z,17.24
2023-05-13T19:33:11.734Z,17.13
2023-05-13T19:35:44.592Z,16.78
2023-05-13T19:38:16.789Z,16.81
2023-05-13T19:40:46.085Z,16.88
2023-05-13T19:43:15.315Z,17.02
2023-05-13T19:45:44.052Z,16.91
2023-05-13T19:48:13.997Z,16.81
2023-05-13T19:50:42.776Z,16.68
2023-05-13T19:53:11.518Z,16.71
2023-05-13T19:55:41.737Z,16.64
2023-05-13T19:58:10.473Z,16.57
2023-05-13T20:00:39.323Z,16.43
2023-05-13T20:03:08.394Z,16.47
2023-05-13T20:05:37.272Z,16.32
2023-05-13T20:08:06.432Z,16.21
2023-05-13T20:10:36.783Z,16.20
2023-05-13T20:13:07.993Z,16.22
2023-05-13T20:15:36.986Z,16.15
2023-05-13T20:18:06.090Z,16.13
2023-05-13T20:20:35.524Z,16.05
2023-05-13T20:23:04.338Z,16.06
2023-05-13T20:25:33.091Z,16.05
2023-05-13T20:28:04.125Z,15.92
2023-05-13T20:30:35.652Z,15.95
2023-05-13T20:33:09.103Z,15.92
2023-05-13T20:35:38.350Z,15.78
2023-05-13T20:38:07.305Z,15.67
2023-05-13T20:40:36.280Z,15.60
2023-05-13T20:43:07.521Z,15.56
2023-05-13T20:45:39.756Z,15.58
2023-05-13T20:48:11.049Z,15.63
2023-05-13T20:50:39.783Z,15.58
2023-05-13T20:53:11.362Z,15.67
2023-05-13T20:55:42.316Z,15.52
2023-05-13T20:58:12.166Z,15.45
2023-05-13T21:00:42.383Z,15.29
2023-05-13T21:03:11.595Z,15.35
2023-05-13T21:05:40.556Z,15.35
2023-05-13T21:08:09.357Z,15.35
2023-05-13T21:10:38.293Z,15.36
2023-05-13T21:13:07.253Z,15.41
2023-05-13T21:15:38.503Z,15.25
2023-05-13T21:18:08.869Z,15.18
2023-05-13T21:20:37.703Z,15.07
2023-05-13T21:23:06.487Z,14.84
2023-05-13T21:25:35.284Z,14.79
2023-05-13T21:28:05.615Z,14.91
2023-05-13T21:30:34.368Z,14.89
2023-05-13T21:33:03.247Z,14.75
2023-05-13T21:35:33.406Z,14.84
2023-05-13T21:38:12.112Z,14.76
2023-05-13T21:40:44.502Z,14.82
2023-05-13T21:43:13.505Z,14.59
2023-05-13T21:45:42.392Z,14.64
2023-05-13T21:48:11.359Z,14.53
2023-05-13T21:50:41.791Z,13.81
2023-05-13T21:53:11.817Z,14.27
2023-05-13T21:55:40.888Z,14.48
2023-05-13T21:58:09.656Z,14.41
2023-05-13T22:00:38.383Z,14.43
2023-05-13T22:03:07.473Z,14.27
2023-05-13T22:05:42.298Z,14.41
2023-05-13T22:08:14.911Z,14.33
2023-05-13T22:10:43.846Z,14.29
2023-05-13T22:13:12.669Z,13.38
2023-05-13T22:15:41.820Z,14.12
2023-05-13T22:18:10.811Z,13.85
2023-05-13T22:20:39.556Z,13.73
2023-05-13T22:23:08.790Z,13.81
2023-05-13T22:25:39.163Z,13.86
2023-05-13T22:28:12.275Z,13.96
2023-05-13T22:30:40.874Z,13.70
2023-05-13T22:33:09.672Z,13.79
2023-05-13T22:35:39.588Z,13.79
2023-05-13T22:38:08.662Z,13.85
2023-05-13T22:40:39.217Z,13.80
2023-05-13T22:43:08.093Z,13.66
2023-05-13T22:45:38.146Z,13.70
2023-05-13T22:48:08.206Z,13.44
2023-05-13T22:50:37.038Z,12.81
2023-05-13T22:53:05.848Z,13.02
2023-05-13T22:55:34.764Z,13.60
2023-05-13T22:58:05.217Z,13.60
2023-05-13T23:00:34.082Z,13.64
2023-05-13T23:03:02.969Z,13.54
2023-05-13T23:05:31.902Z,13.49
2023-05-13T23:08:00.758Z,13.46
2023-05-13T23:10:30.047Z,13.50
2023-05-13T23:12:58.964Z,13.60
2023-05-13T23:15:29.126Z,13.48
2023-05-13T23:17:58.191Z,13.35
2023-05-13T23:20:29.194Z,13.26
2023-05-13T23:22:58.107Z,13.41
2023-05-13T23:25:29.409Z,13.41
2023-05-13T23:27:58.382Z,13.35
2023-05-13T23:30:28.467Z,13.28
2023-05-13T23:32:59.679Z,13.31
2023-05-13T23:35:28.692Z,12.51
2023-05-13T23:37:57.856Z,13.38
2023-05-13T23:40:26.794Z,13.34
2023-05-13T23:42:55.696Z,13.32
2023-05-13T23:45:24.586Z,13.32
2023-05-13T23:47:54.810Z,13.22
2023-05-13T23:50:24.289Z,13.16
2023-05-13T23:52:53.104Z,13.03
2023-05-13T23:55:22.243Z,13.08
2023-05-13T23:57:53.523Z,13.06
